sensor_id;sensor_type;location;lat;lon;timestamp;P1;durP1;ratioP1;P2;durP2;ratioP2
77705;SDS011;66874;45.274;5.880;2023-07-29T00:00:40;4.43;;;2.92;;
77705;SDS011;66874;45.274;5.880;2023-07-29T00:03:06;5.20;;;3.38;;
77705;SDS011;66874;45.274;5.880;2023-07-29T00:05:31;5.78;;;3.33;;
77705;SDS011;66874;45.274;5.880;2023-07-29T00:07:56;5.85;;;2.97;;
77705;SDS011;66874;45.274;5.880;2023-07-29T00:10:22;4.85;;;3.28;;
77705;SDS011;66874;45.274;5.880;2023-07-29T00:12:47;11.52;;;3.88;;
77705;SDS011;66874;45.274;5.880;2023-07-29T00:15:13;9.18;;;3.67;;
77705;SDS011;66874;45.274;5.880;2023-07-29T00:17:38;7.20;;;3.30;;
77705;SDS011;66874;45.274;5.880;2023-07-29T00:20:04;5.20;;;3.50;;
77705;SDS011;66874;45.274;5.880;2023-07-29T00:22:31;4.63;;;3.35;;
77705;SDS011;66874;45.274;5.880;2023-07-29T00:24:56;5.82;;;3.67;;
77705;SDS011;66874;45.274;5.880;2023-07-29T00:27:22;9.02;;;3.55;;
77705;SDS011;66874;45.274;5.880;2023-07-29T00:29:48;5.30;;;3.15;;
77705;SDS011;66874;45.274;5.880;2023-07-29T00:32:14;4.70;;;3.22;;
77705;SDS011;66874;45.274;5.880;2023-07-29T00:34:39;5.50;;;3.80;;
77705;SDS011;66874;45.274;5.880;2023-07-29T00:37:05;5.88;;;3.70;;
77705;SDS011;66874;45.274;5.880;2023-07-29T00:39:31;8.57;;;3.47;;
77705;SDS011;66874;45.274;5.880;2023-07-29T00:41:57;6.35;;;2.83;;
77705;SDS011;66874;45.274;5.880;2023-07-29T00:44:22;6.63;;;3.22;;
77705;SDS011;66874;45.274;5.880;2023-07-29T00:46:47;6.20;;;3.55;;
77705;SDS011;66874;45.274;5.880;2023-07-29T00:49:16;5.07;;;3.30;;
77705;SDS011;66874;45.274;5.880;2023-07-29T00:51:42;5.75;;;3.22;;
77705;SDS011;66874;45.274;5.880;2023-07-29T00:54:07;4.88;;;3.38;;
77705;SDS011;66874;45.274;5.880;2023-07-29T00:56:33;7.53;;;3.25;;
77705;SDS011;66874;45.274;5.880;2023-07-29T00:58:58;7.18;;;3.50;;
77705;SDS011;66874;45.274;5.880;2023-07-29T01:01:26;6.18;;;3.67;;
77705;SDS011;66874;45.274;5.880;2023-07-29T01:03:53;7.33;;;3.40;;
77705;SDS011;66874;45.274;5.880;2023-07-29T01:06:24;5.93;;;3.30;;
77705;SDS011;66874;45.274;5.880;2023-07-29T01:18:22;5.97;;;3.35;;
77705;SDS011;66874;45.274;5.880;2023-07-29T01:20:54;7.53;;;3.58;;
77705;SDS011;66874;45.274;5.880;2023-07-29T01:23:29;6.15;;;3.92;;
77705;SDS011;66874;45.274;5.880;2023-07-29T01:25:58;5.18;;;2.90;;
77705;SDS011;66874;45.274;5.880;2023-07-29T01:28:24;7.88;;;3.08;;
77705;SDS011;66874;45.274;5.880;2023-07-29T01:30:53;5.57;;;3.92;;
77705;SDS011;66874;45.274;5.880;2023-07-29T01:33:26;9.68;;;3.78;;
77705;SDS011;66874;45.274;5.880;2023-07-29T01:36:02;7.03;;;4.07;;
77705;SDS011;66874;45.274;5.880;2023-07-29T01:38:35;6.97;;;3.88;;
77705;SDS011;66874;45.274;5.880;2023-07-29T01:41:03;6.40;;;3.33;;
77705;SDS011;66874;45.274;5.880;2023-07-29T01:43:31;6.15;;;4.13;;
77705;SDS011;66874;45.274;5.880;2023-07-29T01:45:57;6.47;;;3.60;;
77705;SDS011;66874;45.274;5.880;2023-07-29T01:48:23;9.18;;;3.85;;
77705;SDS011;66874;45.274;5.880;2023-07-29T01:50:48;5.75;;;3.92;;
77705;SDS011;66874;45.274;5.880;2023-07-29T01:53:14;8.05;;;3.90;;
77705;SDS011;66874;45.274;5.880;2023-07-29T01:55:40;5.15;;;3.72;;
77705;SDS011;66874;45.274;5.880;2023-07-29T01:58:06;7.72;;;3.67;;
77705;SDS011;66874;45.274;5.880;2023-07-29T02:00:32;7.75;;;3.78;;
77705;SDS011;66874;45.274;5.880;2023-07-29T02:02:57;8.10;;;3.40;;
77705;SDS011;66874;45.274;5.880;2023-07-29T02:05:22;4.45;;;3.55;;
77705;SDS011;66874;45.274;5.880;2023-07-29T02:07:48;5.18;;;3.80;;
77705;SDS011;66874;45.274;5.880;2023-07-29T02:10:13;7.63;;;3.80;;
77705;SDS011;66874;45.274;5.880;2023-07-29T02:12:39;6.85;;;3.78;;
77705;SDS011;66874;45.274;5.880;2023-07-29T02:15:04;7.30;;;3.70;;
77705;SDS011;66874;45.274;5.880;2023-07-29T02:17:30;7.10;;;3.72;;
77705;SDS011;66874;45.274;5.880;2023-07-29T02:19:56;4.57;;;3.33;;
77705;SDS011;66874;45.274;5.880;2023-07-29T02:22:21;6.68;;;3.75;;
77705;SDS011;66874;45.274;5.880;2023-07-29T02:24:47;5.70;;;4.03;;
77705;SDS011;66874;45.274;5.880;2023-07-29T02:27:12;5.70;;;3.92;;
77705;SDS011;66874;45.274;5.880;2023-07-29T02:29:38;5.63;;;3.70;;
77705;SDS011;66874;45.274;5.880;2023-07-29T02:32:03;5.00;;;4.03;;
77705;SDS011;66874;45.274;5.880;2023-07-29T02:34:29;6.38;;;3.30;;
77705;SDS011;66874;45.274;5.880;2023-07-29T02:36:54;8.55;;;4.20;;
77705;SDS011;66874;45.274;5.880;2023-07-29T02:39:20;6.72;;;3.63;;
77705;SDS011;66874;45.274;5.880;2023-07-29T02:41:45;5.53;;;4.13;;
77705;SDS011;66874;45.274;5.880;2023-07-29T02:44:11;8.50;;;4.20;;
77705;SDS011;66874;45.274;5.880;2023-07-29T02:46:36;4.57;;;3.33;;
77705;SDS011;66874;45.274;5.880;2023-07-29T02:49:02;7.28;;;3.40;;
77705;SDS011;66874;45.274;5.880;2023-07-29T02:51:29;5.10;;;3.50;;
77705;SDS011;66874;45.274;5.880;2023-07-29T02:53:55;7.85;;;3.70;;
77705;SDS011;66874;45.274;5.880;2023-07-29T02:56:20;6.25;;;4.30;;
77705;SDS011;66874;45.274;5.880;2023-07-29T02:58:45;7.68;;;3.40;;
77705;SDS011;66874;45.274;5.880;2023-07-29T03:01:11;5.88;;;3.67;;
77705;SDS011;66874;45.274;5.880;2023-07-29T03:03:36;9.40;;;4.13;;
77705;SDS011;66874;45.274;5.880;2023-07-29T03:06:02;8.57;;;4.00;;
77705;SDS011;66874;45.274;5.880;2023-07-29T03:08:32;6.10;;;3.60;;
77705;SDS011;66874;45.274;5.880;2023-07-29T03:11:04;6.80;;;3.50;;
77705;SDS011;66874;45.274;5.880;2023-07-29T03:13:31;6.30;;;3.40;;
77705;SDS011;66874;45.274;5.880;2023-07-29T03:16:04;5.57;;;3.63;;
77705;SDS011;66874;45.274;5.880;2023-07-29T03:18:30;8.68;;;3.80;;
77705;SDS011;66874;45.274;5.880;2023-07-29T03:20:56;4.57;;;3.03;;
77705;SDS011;66874;45.274;5.880;2023-07-29T03:23:21;6.75;;;4.05;;
77705;SDS011;66874;45.274;5.880;2023-07-29T03:25:50;5.65;;;3.55;;
77705;SDS011;66874;45.274;5.880;2023-07-29T03:28:21;4.35;;;3.25;;
77705;SDS011;66874;45.274;5.880;2023-07-29T03:30:48;5.67;;;3.57;;
77705;SDS011;66874;45.274;5.880;2023-07-29T03:33:13;4.95;;;3.65;;
77705;SDS011;66874;45.274;5.880;2023-07-29T03:35:38;5.93;;;3.40;;
77705;SDS011;66874;45.274;5.880;2023-07-29T03:38:04;9.07;;;3.70;;
77705;SDS011;66874;45.274;5.880;2023-07-29T03:40:29;8.00;;;3.97;;
77705;SDS011;66874;45.274;5.880;2023-07-29T03:42:54;5.13;;;3.95;;
77705;SDS011;66874;45.274;5.880;2023-07-29T03:45:20;5.50;;;3.47;;
77705;SDS011;66874;45.274;5.880;2023-07-29T03:47:45;7.57;;;3.75;;
77705;SDS011;66874;45.274;5.880;2023-07-29T03:50:11;5.10;;;3.78;;
77705;SDS011;66874;45.274;5.880;2023-07-29T03:52:36;4.65;;;4.00;;
77705;SDS011;66874;45.274;5.880;2023-07-29T03:55:01;7.00;;;3.80;;
77705;SDS011;66874;45.274;5.880;2023-07-29T03:57:27;6.25;;;3.88;;
77705;SDS011;66874;45.274;5.880;2023-07-29T03:59:54;7.72;;;4.10;;
77705;SDS011;66874;45.274;5.880;2023-07-29T04:02:19;5.30;;;3.58;;
77705;SDS011;66874;45.274;5.880;2023-07-29T04:04:44;4.28;;;3.47;;
77705;SDS011;66874;45.274;5.880;2023-07-29T04:07:12;11.32;;;3.92;;
77705;SDS011;66874;45.274;5.880;2023-07-29T04:09:38;5.13;;;3.40;;
77705;SDS011;66874;45.274;5.880;2023-07-29T04:12:03;5.68;;;3.97;;
77705;SDS011;66874;45.274;5.880;2023-07-29T04:14:29;4.55;;;3.85;;
77705;SDS011;66874;45.274;5.880;2023-07-29T04:16:55;6.78;;;4.00;;
77705;SDS011;66874;45.274;5.880;2023-07-29T04:19:20;4.93;;;3.72;;
77705;SDS011;66874;45.274;5.880;2023-07-29T04:21:46;6.78;;;4.60;;
77705;SDS011;66874;45.274;5.880;2023-07-29T04:24:11;5.05;;;3.90;;
77705;SDS011;66874;45.274;5.880;2023-07-29T04:26:36;9.63;;;4.28;;
77705;SDS011;66874;45.274;5.880;2023-07-29T04:29:05;4.40;;;3.80;;
77705;SDS011;66874;45.274;5.880;2023-07-29T04:31:30;6.50;;;3.95;;
77705;SDS011;66874;45.274;5.880;2023-07-29T04:33:55;7.78;;;3.97;;
77705;SDS011;66874;45.274;5.880;2023-07-29T04:36:21;5.18;;;4.03;;
77705;SDS011;66874;45.274;5.880;2023-07-29T04:38:46;5.55;;;4.25;;
77705;SDS011;66874;45.274;5.880;2023-07-29T04:41:12;7.53;;;3.97;;
77705;SDS011;66874;45.274;5.880;2023-07-29T04:43:37;10.50;;;3.80;;
77705;SDS011;66874;45.274;5.880;2023-07-29T04:46:02;5.50;;;3.70;;
77705;SDS011;66874;45.274;5.880;2023-07-29T04:48:31;8.52;;;3.80;;
77705;SDS011;66874;45.274;5.880;2023-07-29T04:50:57;5.72;;;3.75;;
77705;SDS011;66874;45.274;5.880;2023-07-29T04:53:22;8.13;;;4.03;;
77705;SDS011;66874;45.274;5.880;2023-07-29T04:55:47;7.30;;;3.72;;
77705;SDS011;66874;45.274;5.880;2023-07-29T04:58:13;7.80;;;4.32;;
77705;SDS011;66874;45.274;5.880;2023-07-29T05:00:38;5.57;;;4.22;;
77705;SDS011;66874;45.274;5.880;2023-07-29T05:03:04;5.63;;;3.83;;
77705;SDS011;66874;45.274;5.880;2023-07-29T05:05:29;6.47;;;4.00;;
77705;SDS011;66874;45.274;5.880;2023-07-29T05:07:54;5.60;;;4.03;;
77705;SDS011;66874;45.274;5.880;2023-07-29T05:10:20;9.00;;;3.88;;
77705;SDS011;66874;45.274;5.880;2023-07-29T05:12:45;8.15;;;4.18;;
77705;SDS011;66874;45.274;5.880;2023-07-29T05:15:11;7.43;;;4.03;;
77705;SDS011;66874;45.274;5.880;2023-07-29T05:17:36;6.32;;;4.32;;
77705;SDS011;66874;45.274;5.880;2023-07-29T05:20:02;11.07;;;4.60;;
77705;SDS011;66874;45.274;5.880;2023-07-29T05:22:27;4.72;;;4.22;;
77705;SDS011;66874;45.274;5.880;2023-07-29T05:24:53;6.30;;;4.47;;
77705;SDS011;66874;45.274;5.880;2023-07-29T05:27:18;6.25;;;4.22;;
77705;SDS011;66874;45.274;5.880;2023-07-29T05:29:44;7.07;;;4.25;;
77705;SDS011;66874;45.274;5.880;2023-07-29T05:32:09;7.40;;;4.32;;
77705;SDS011;66874;45.274;5.880;2023-07-29T05:34:35;8.63;;;4.57;;
77705;SDS011;66874;45.274;5.880;2023-07-29T05:37:00;8.27;;;4.10;;
77705;SDS011;66874;45.274;5.880;2023-07-29T05:39:25;5.75;;;3.80;;
77705;SDS011;66874;45.274;5.880;2023-07-29T05:41:51;7.05;;;4.43;;
77705;SDS011;66874;45.274;5.880;2023-07-29T05:44:16;9.95;;;4.43;;
77705;SDS011;66874;45.274;5.880;2023-07-29T05:46:42;9.57;;;4.40;;
77705;SDS011;66874;45.274;5.880;2023-07-29T05:49:07;6.03;;;3.90;;
77705;SDS011;66874;45.274;5.880;2023-07-29T05:51:32;9.10;;;4.47;;
77705;SDS011;66874;45.274;5.880;2023-07-29T05:53:58;8.38;;;4.30;;
77705;SDS011;66874;45.274;5.880;2023-07-29T05:56:23;5.60;;;4.00;;
77705;SDS011;66874;45.274;5.880;2023-07-29T05:58:49;7.28;;;4.32;;
77705;SDS011;66874;45.274;5.880;2023-07-29T06:01:14;7.43;;;4.53;;
77705;SDS011;66874;45.274;5.880;2023-07-29T06:03:40;5.93;;;4.30;;
77705;SDS011;66874;45.274;5.880;2023-07-29T06:06:05;7.30;;;4.18;;
77705;SDS011;66874;45.274;5.880;2023-07-29T06:08:31;6.45;;;4.35;;
77705;SDS011;66874;45.274;5.880;2023-07-29T06:10:59;7.28;;;5.00;;
77705;SDS011;66874;45.274;5.880;2023-07-29T06:13:25;8.35;;;4.25;;
77705;SDS011;66874;45.274;5.880;2023-07-29T06:15:50;8.30;;;4.18;;
77705;SDS011;66874;45.274;5.880;2023-07-29T06:18:16;7.05;;;4.35;;
77705;SDS011;66874;45.274;5.880;2023-07-29T06:20:41;10.60;;;4.22;;
77705;SDS011;66874;45.274;5.880;2023-07-29T06:23:07;7.20;;;4.60;;
77705;SDS011;66874;45.274;5.880;2023-07-29T06:25:33;5.13;;;3.67;;
77705;SDS011;66874;45.274;5.880;2023-07-29T06:27:59;5.82;;;3.65;;
77705;SDS011;66874;45.274;5.880;2023-07-29T06:30:24;7.32;;;4.47;;
77705;SDS011;66874;45.274;5.880;2023-07-29T06:32:50;5.10;;;3.88;;
77705;SDS011;66874;45.274;5.880;2023-07-29T06:35:15;6.43;;;3.63;;
77705;SDS011;66874;45.274;5.880;2023-07-29T06:37:40;7.35;;;4.18;;
77705;SDS011;66874;45.274;5.880;2023-07-29T06:40:06;7.07;;;4.13;;
77705;SDS011;66874;45.274;5.880;2023-07-29T06:42:32;6.93;;;3.83;;
77705;SDS011;66874;45.274;5.880;2023-07-29T06:44:57;5.95;;;3.42;;
77705;SDS011;66874;45.274;5.880;2023-07-29T06:47:22;11.05;;;4.88;;
77705;SDS011;66874;45.274;5.880;2023-07-29T06:49:48;8.15;;;3.70;;
77705;SDS011;66874;45.274;5.880;2023-07-29T06:52:13;5.65;;;4.50;;
77705;SDS011;66874;45.274;5.880;2023-07-29T06:54:38;6.70;;;4.28;;
77705;SDS011;66874;45.274;5.880;2023-07-29T06:57:04;8.43;;;3.75;;
77705;SDS011;66874;45.274;5.880;2023-07-29T06:59:30;8.55;;;4.60;;
77705;SDS011;66874;45.274;5.880;2023-07-29T07:01:55;8.75;;;5.75;;
77705;SDS011;66874;45.274;5.880;2023-07-29T07:04:20;7.70;;;4.50;;
77705;SDS011;66874;45.274;5.880;2023-07-29T07:06:46;9.43;;;5.15;;
77705;SDS011;66874;45.274;5.880;2023-07-29T07:09:11;7.28;;;4.55;;
77705;SDS011;66874;45.274;5.880;2023-07-29T07:11:37;9.25;;;4.75;;
77705;SDS011;66874;45.274;5.880;2023-07-29T07:14:02;8.00;;;4.88;;
77705;SDS011;66874;45.274;5.880;2023-07-29T07:16:27;11.18;;;5.30;;
77705;SDS011;66874;45.274;5.880;2023-07-29T07:18:55;8.55;;;4.25;;
77705;SDS011;66874;45.274;5.880;2023-07-29T07:21:20;7.30;;;4.40;;
77705;SDS011;66874;45.274;5.880;2023-07-29T07:23:46;8.63;;;4.95;;
77705;SDS011;66874;45.274;5.880;2023-07-29T07:26:11;8.30;;;4.53;;
77705;SDS011;66874;45.274;5.880;2023-07-29T07:28:36;9.18;;;4.63;;
77705;SDS011;66874;45.274;5.880;2023-07-29T07:31:02;8.25;;;4.57;;
77705;SDS011;66874;45.274;5.880;2023-07-29T07:33:27;7.85;;;4.30;;
77705;SDS011;66874;45.274;5.880;2023-07-29T07:35:53;5.75;;;4.72;;
77705;SDS011;66874;45.274;5.880;2023-07-29T07:38:18;6.10;;;4.63;;
77705;SDS011;66874;45.274;5.880;2023-07-29T07:40:51;9.77;;;4.78;;
77705;SDS011;66874;45.274;5.880;2023-07-29T07:43:19;8.55;;;4.05;;
77705;SDS011;66874;45.274;5.880;2023-07-29T07:45:44;8.18;;;4.07;;
77705;SDS011;66874;45.274;5.880;2023-07-29T07:48:09;7.85;;;4.43;;
77705;SDS011;66874;45.274;5.880;2023-07-29T07:50:36;8.13;;;3.85;;
77705;SDS011;66874;45.274;5.880;2023-07-29T07:53:02;9.75;;;4.35;;
77705;SDS011;66874;45.274;5.880;2023-07-29T07:55:27;6.95;;;4.22;;
77705;SDS011;66874;45.274;5.880;2023-07-29T07:57:52;5.28;;;3.88;;
77705;SDS011;66874;45.274;5.880;2023-07-29T08:00:18;6.82;;;4.57;;
77705;SDS011;66874;45.274;5.880;2023-07-29T08:02:44;9.37;;;4.57;;
77705;SDS011;66874;45.274;5.880;2023-07-29T08:05:10;6.50;;;4.45;;
77705;SDS011;66874;45.274;5.880;2023-07-29T08:07:35;6.10;;;4.35;;
77705;SDS011;66874;45.274;5.880;2023-07-29T08:10:01;6.15;;;4.53;;
77705;SDS011;66874;45.274;5.880;2023-07-29T08:12:26;7.35;;;4.53;;
77705;SDS011;66874;45.274;5.880;2023-07-29T08:14:51;8.30;;;4.47;;
77705;SDS011;66874;45.274;5.880;2023-07-29T08:17:17;10.15;;;3.88;;
77705;SDS011;66874;45.274;5.880;2023-07-29T08:19:42;7.25;;;4.07;;
77705;SDS011;66874;45.274;5.880;2023-07-29T08:22:08;5.20;;;3.58;;
77705;SDS011;66874;45.274;5.880;2023-07-29T08:24:33;5.70;;;4.03;;
77705;SDS011;66874;45.274;5.880;2023-07-29T08:26:59;9.77;;;3.70;;
77705;SDS011;66874;45.274;5.880;2023-07-29T08:29:24;8.82;;;4.30;;
77705;SDS011;66874;45.274;5.880;2023-07-29T08:31:50;5.82;;;3.53;;
77705;SDS011;66874;45.274;5.880;2023-07-29T08:34:16;8.02;;;4.60;;
77705;SDS011;66874;45.274;5.880;2023-07-29T08:36:42;5.10;;;4.10;;
77705;SDS011;66874;45.274;5.880;2023-07-29T08:39:07;5.03;;;4.10;;
77705;SDS011;66874;45.274;5.880;2023-07-29T08:41:37;6.50;;;4.15;;
77705;SDS011;66874;45.274;5.880;2023-07-29T08:44:26;7.55;;;4.50;;
77705;SDS011;66874;45.274;5.880;2023-07-29T08:46:54;7.50;;;4.75;;
77705;SDS011;66874;45.274;5.880;2023-07-29T08:49:22;5.75;;;4.50;;
77705;SDS011;66874;45.274;5.880;2023-07-29T08:51:48;10.88;;;4.65;;
77705;SDS011;66874;45.274;5.880;2023-07-29T08:54:14;6.07;;;4.00;;
77705;SDS011;66874;45.274;5.880;2023-07-29T08:56:40;5.85;;;3.92;;
77705;SDS011;66874;45.274;5.880;2023-07-29T08:59:07;5.78;;;4.25;;
77705;SDS011;66874;45.274;5.880;2023-07-29T09:01:33;6.40;;;4.35;;
77705;SDS011;66874;45.274;5.880;2023-07-29T09:03:59;6.05;;;4.07;;
77705;SDS011;66874;45.274;5.880;2023-07-29T09:06:24;6.53;;;4.65;;
77705;SDS011;66874;45.274;5.880;2023-07-29T09:08:52;6.10;;;4.22;;
77705;SDS011;66874;45.274;5.880;2023-07-29T09:11:19;10.07;;;4.85;;
77705;SDS011;66874;45.274;5.880;2023-07-29T09:13:45;7.37;;;4.30;;
77705;SDS011;66874;45.274;5.880;2023-07-29T09:16:11;5.40;;;4.07;;
77705;SDS011;66874;45.274;5.880;2023-07-29T09:18:37;4.60;;;4.15;;
77705;SDS011;66874;45.274;5.880;2023-07-29T09:21:02;6.88;;;4.45;;
77705;SDS011;66874;45.274;5.880;2023-07-29T09:23:28;6.70;;;4.72;;
77705;SDS011;66874;45.274;5.880;2023-07-29T09:26:03;6.78;;;4.10;;
77705;SDS011;66874;45.274;5.880;2023-07-29T09:28:32;6.47;;;3.90;;
77705;SDS011;66874;45.274;5.880;2023-07-29T09:30:59;6.97;;;4.65;;
77705;SDS011;66874;45.274;5.880;2023-07-29T09:33:25;4.68;;;3.95;;
77705;SDS011;66874;45.274;5.880;2023-07-29T09:35:51;6.45;;;4.10;;
77705;SDS011;66874;45.274;5.880;2023-07-29T09:38:17;7.45;;;3.85;;
77705;SDS011;66874;45.274;5.880;2023-07-29T09:40:42;6.05;;;3.90;;
77705;SDS011;66874;45.274;5.880;2023-07-29T09:43:10;8.25;;;4.00;;
77705;SDS011;66874;45.274;5.880;2023-07-29T09:45:36;4.72;;;3.80;;
77705;SDS011;66874;45.274;5.880;2023-07-29T09:48:02;7.70;;;4.18;;
77705;SDS011;66874;45.274;5.880;2023-07-29T09:50:30;11.40;;;4.43;;
77705;SDS011;66874;45.274;5.880;2023-07-29T09:52:56;5.10;;;3.60;;
77705;SDS011;66874;45.274;5.880;2023-07-29T09:55:25;6.05;;;3.92;;
77705;SDS011;66874;45.274;5.880;2023-07-29T09:57:58;6.00;;;4.18;;
77705;SDS011;66874;45.274;5.880;2023-07-29T10:00:27;4.93;;;3.80;;
77705;SDS011;66874;45.274;5.880;2023-07-29T10:02:54;4.95;;;4.00;;
77705;SDS011;66874;45.274;5.880;2023-07-29T10:05:21;4.57;;;3.88;;
77705;SDS011;66874;45.274;5.880;2023-07-29T10:07:48;5.10;;;3.92;;
77705;SDS011;66874;45.274;5.880;2023-07-29T10:10:14;8.50;;;3.87;;
77705;SDS011;66874;45.274;5.880;2023-07-29T10:12:40;7.47;;;4.03;;
77705;SDS011;66874;45.274;5.880;2023-07-29T10:15:08;5.95;;;4.10;;
77705;SDS011;66874;45.274;5.880;2023-07-29T10:17:34;5.60;;;4.38;;
77705;SDS011;66874;45.274;5.880;2023-07-29T10:20:03;5.68;;;3.92;;
77705;SDS011;66874;45.274;5.880;2023-07-29T10:22:32;4.40;;;3.70;;
77705;SDS011;66874;45.274;5.880;2023-07-29T10:25:22;6.05;;;3.72;;
77705;SDS011;66874;45.274;5.880;2023-07-29T10:27:49;9.50;;;3.83;;
77705;SDS011;66874;45.274;5.880;2023-07-29T10:30:18;4.78;;;3.83;;
77705;SDS011;66874;45.274;5.880;2023-07-29T10:32:44;6.57;;;4.15;;
77705;SDS011;66874;45.274;5.880;2023-07-29T10:35:13;4.22;;;3.65;;
77705;SDS011;66874;45.274;5.880;2023-07-29T10:37:40;5.53;;;3.78;;
77705;SDS011;66874;45.274;5.880;2023-07-29T10:40:10;12.23;;;4.13;;
77705;SDS011;66874;45.274;5.880;2023-07-29T10:42:37;5.43;;;3.92;;
77705;SDS011;66874;45.274;5.880;2023-07-29T10:45:19;5.15;;;4.47;;
77705;SDS011;66874;45.274;5.880;2023-07-29T10:47:46;9.52;;;4.15;;
77705;SDS011;66874;45.274;5.880;2023-07-29T10:50:18;7.80;;;3.90;;
77705;SDS011;66874;45.274;5.880;2023-07-29T10:52:49;6.13;;;4.38;;
77705;SDS011;66874;45.274;5.880;2023-07-29T10:55:29;5.03;;;3.78;;
77705;SDS011;66874;45.274;5.880;2023-07-29T11:00:42;7.88;;;5.07;;
77705;SDS011;66874;45.274;5.880;2023-07-29T11:05:47;5.10;;;4.60;;
77705;SDS011;66874;45.274;5.880;2023-07-29T11:08:17;5.20;;;4.15;;
77705;SDS011;66874;45.274;5.880;2023-07-29T11:13:26;5.18;;;4.03;;
77705;SDS011;66874;45.274;5.880;2023-07-29T11:15:53;4.60;;;3.58;;
77705;SDS011;66874;45.274;5.880;2023-07-29T11:18:20;5.88;;;4.00;;
77705;SDS011;66874;45.274;5.880;2023-07-29T11:20:46;5.30;;;3.83;;
77705;SDS011;66874;45.274;5.880;2023-07-29T11:23:12;5.68;;;4.20;;
77705;SDS011;66874;45.274;5.880;2023-07-29T11:25:38;6.22;;;3.50;;
77705;SDS011;66874;45.274;5.880;2023-07-29T11:28:04;5.18;;;4.18;;
77705;SDS011;66874;45.274;5.880;2023-07-29T11:30:29;8.43;;;4.07;;
77705;SDS011;66874;45.274;5.880;2023-07-29T11:32:56;4.82;;;3.65;;
77705;SDS011;66874;45.274;5.880;2023-07-29T11:35:23;6.93;;;4.15;;
77705;SDS011;66874;45.274;5.880;2023-07-29T11:37:50;4.05;;;3.65;;
77705;SDS011;66874;45.274;5.880;2023-07-29T11:40:18;6.30;;;4.20;;
77705;SDS011;66874;45.274;5.880;2023-07-29T11:42:45;5.63;;;4.40;;
77705;SDS011;66874;45.274;5.880;2023-07-29T11:45:12;6.60;;;4.30;;
77705;SDS011;66874;45.274;5.880;2023-07-29T11:47:38;9.25;;;4.32;;
77705;SDS011;66874;45.274;5.880;2023-07-29T11:50:04;5.47;;;4.18;;
77705;SDS011;66874;45.274;5.880;2023-07-29T11:52:32;4.93;;;3.67;;
77705;SDS011;66874;45.274;5.880;2023-07-29T11:54:58;5.68;;;4.18;;
77705;SDS011;66874;45.274;5.880;2023-07-29T11:57:25;5.28;;;3.80;;
77705;SDS011;66874;45.274;5.880;2023-07-29T11:59:51;9.10;;;3.90;;
77705;SDS011;66874;45.274;5.880;2023-07-29T12:02:18;4.40;;;3.40;;
77705;SDS011;66874;45.274;5.880;2023-07-29T12:04:45;3.92;;;3.53;;
77705;SDS011;66874;45.274;5.880;2023-07-29T12:07:12;5.32;;;4.20;;
77705;SDS011;66874;45.274;5.880;2023-07-29T12:09:39;5.20;;;3.60;;
77705;SDS011;66874;45.274;5.880;2023-07-29T12:12:06;5.40;;;4.07;;
77705;SDS011;66874;45.274;5.880;2023-07-29T12:14:32;7.43;;;3.58;;
77705;SDS011;66874;45.274;5.880;2023-07-29T12:17:02;4.45;;;3.55;;
77705;SDS011;66874;45.274;5.880;2023-07-29T12:19:32;4.93;;;3.80;;
77705;SDS011;66874;45.274;5.880;2023-07-29T12:22:00;4.05;;;3.40;;
77705;SDS011;66874;45.274;5.880;2023-07-29T12:24:29;4.35;;;3.60;;
77705;SDS011;66874;45.274;5.880;2023-07-29T12:26:56;5.72;;;3.33;;
77705;SDS011;66874;45.274;5.880;2023-07-29T12:29:21;6.13;;;3.72;;
77705;SDS011;66874;45.274;5.880;2023-07-29T12:31:47;5.75;;;3.97;;
77705;SDS011;66874;45.274;5.880;2023-07-29T12:34:20;8.33;;;3.60;;
77705;SDS011;66874;45.274;5.880;2023-07-29T12:36:49;4.75;;;3.70;;
77705;SDS011;66874;45.274;5.880;2023-07-29T12:39:24;7.10;;;4.50;;
77705;SDS011;66874;45.274;5.880;2023-07-29T12:41:52;4.90;;;3.83;;
77705;SDS011;66874;45.274;5.880;2023-07-29T12:44:18;5.82;;;3.25;;
77705;SDS011;66874;45.274;5.880;2023-07-29T12:46:44;4.20;;;3.40;;
77705;SDS011;66874;45.274;5.880;2023-07-29T12:49:09;4.40;;;3.57;;
77705;SDS011;66874;45.274;5.880;2023-07-29T12:51:35;4.63;;;3.80;;
77705;SDS011;66874;45.274;5.880;2023-07-29T12:54:02;11.52;;;4.22;;
77705;SDS011;66874;45.274;5.880;2023-07-29T12:56:29;5.78;;;3.63;;
77705;SDS011;66874;45.274;5.880;2023-07-29T12:58:56;7.65;;;3.60;;
77705;SDS011;66874;45.274;5.880;2023-07-29T13:01:21;5.00;;;3.47;;
77705;SDS011;66874;45.274;5.880;2023-07-29T13:03:48;6.10;;;3.70;;
77705;SDS011;66874;45.274;5.880;2023-07-29T13:06:14;5.55;;;3.53;;
77705;SDS011;66874;45.274;5.880;2023-07-29T13:08:40;7.43;;;3.38;;
77705;SDS011;66874;45.274;5.880;2023-07-29T13:11:06;4.17;;;3.23;;
77705;SDS011;66874;45.274;5.880;2023-07-29T13:13:31;9.23;;;3.40;;
77705;SDS011;66874;45.274;5.880;2023-07-29T13:15:57;5.13;;;3.73;;
77705;SDS011;66874;45.274;5.880;2023-07-29T13:18:23;9.98;;;3.90;;
77705;SDS011;66874;45.274;5.880;2023-07-29T13:20:48;9.73;;;4.47;;
77705;SDS011;66874;45.274;5.880;2023-07-29T13:23:14;4.37;;;3.00;;
77705;SDS011;66874;45.274;5.880;2023-07-29T13:25:40;12.63;;;3.50;;
77705;SDS011;66874;45.274;5.880;2023-07-29T13:28:06;5.67;;;3.20;;
77705;SDS011;66874;45.274;5.880;2023-07-29T13:30:32;5.97;;;3.67;;
77705;SDS011;66874;45.274;5.880;2023-07-29T13:32:58;3.83;;;3.20;;
77705;SDS011;66874;45.274;5.880;2023-07-29T13:35:23;3.03;;;2.63;;
77705;SDS011;66874;45.274;5.880;2023-07-29T13:37:49;3.93;;;3.13;;
77705;SDS011;66874;45.274;5.880;2023-07-29T13:40:14;7.03;;;3.43;;
77705;SDS011;66874;45.274;5.880;2023-07-29T13:42:39;4.43;;;3.40;;
77705;SDS011;66874;45.274;5.880;2023-07-29T13:45:05;6.63;;;3.13;;
77705;SDS011;66874;45.274;5.880;2023-07-29T13:47:31;3.77;;;3.13;;
77705;SDS011;66874;45.274;5.880;2023-07-29T13:49:56;3.77;;;3.10;;
77705;SDS011;66874;45.274;5.880;2023-07-29T13:52:21;3.43;;;2.77;;
77705;SDS011;66874;45.274;5.880;2023-07-29T13:54:47;6.37;;;3.00;;
77705;SDS011;66874;45.274;5.880;2023-07-29T13:57:12;3.50;;;3.17;;
77705;SDS011;66874;45.274;5.880;2023-07-29T13:59:38;4.30;;;2.87;;
77705;SDS011;66874;45.274;5.880;2023-07-29T14:02:06;4.55;;;2.92;;
77705;SDS011;66874;45.274;5.880;2023-07-29T14:04:32;5.15;;;2.90;;
77705;SDS011;66874;45.274;5.880;2023-07-29T14:06:58;3.58;;;3.13;;
77705;SDS011;66874;45.274;5.880;2023-07-29T14:09:24;3.13;;;2.50;;
77705;SDS011;66874;45.274;5.880;2023-07-29T14:11:50;5.82;;;3.17;;
77705;SDS011;66874;45.274;5.880;2023-07-29T14:14:15;3.17;;;2.70;;
77705;SDS011;66874;45.274;5.880;2023-07-29T14:16:41;3.65;;;2.95;;
77705;SDS011;66874;45.274;5.880;2023-07-29T14:19:06;3.50;;;3.00;;
77705;SDS011;66874;45.274;5.880;2023-07-29T14:21:32;4.13;;;2.47;;
77705;SDS011;66874;45.274;5.880;2023-07-29T14:23:57;3.42;;;2.70;;
77705;SDS011;66874;45.274;5.880;2023-07-29T14:26:22;3.65;;;2.72;;
77705;SDS011;66874;45.274;5.880;2023-07-29T14:28:48;3.53;;;2.90;;
77705;SDS011;66874;45.274;5.880;2023-07-29T14:31:14;4.22;;;2.90;;
77705;SDS011;66874;45.274;5.880;2023-07-29T14:36:07;3.73;;;3.03;;
77705;SDS011;66874;45.274;5.880;2023-07-29T14:38:32;3.13;;;2.55;;
77705;SDS011;66874;45.274;5.880;2023-07-29T14:40:58;5.00;;;3.17;;
77705;SDS011;66874;45.274;5.880;2023-07-29T14:43:23;4.57;;;3.20;;
77705;SDS011;66874;45.274;5.880;2023-07-29T14:45:49;3.72;;;3.13;;
77705;SDS011;66874;45.274;5.880;2023-07-29T14:48:14;5.80;;;3.42;;
77705;SDS011;66874;45.274;5.880;2023-07-29T14:50:40;3.60;;;3.03;;
77705;SDS011;66874;45.274;5.880;2023-07-29T14:53:06;4.72;;;3.22;;
77705;SDS011;66874;45.274;5.880;2023-07-29T14:55:31;5.43;;;3.50;;
77705;SDS011;66874;45.274;5.880;2023-07-29T14:57:57;4.22;;;3.22;;
77705;SDS011;66874;45.274;5.880;2023-07-29T15:00:22;4.35;;;3.42;;
77705;SDS011;66874;45.274;5.880;2023-07-29T15:02:48;3.50;;;3.05;;